Time;durP1;ratioP1;P1;durP2;ratioP2;P2;SDS_P1;SDS_P2;PMS_P1;PMS_P2;Temp;Humidity;BMP_temperature;BMP_pressure;BME280_temperature;BME280_humidity;BME280_pressure;Samples;Min_cycle;Max_cycle;Signal;HPM_P1;HPM_P2
2023/06/16 00:00:35;;;;;;;;;23.00;22.00;;;;;24.45;39.99;100921.00;6225501;22;45362;-85
2023/06/16 00:03:01;;;;;;;;;23.33;22.67;;;;;24.47;40.21;100935.41;6223895;22;45709;-83
2023/06/16 00:05:28;;;;;;;;;19.33;19.33;;;;;24.33;39.63;100917.81;6226642;22;45402;-84
2023/06/16 00:07:54;;;;;;;;;18.67;17.33;;;;;24.44;40.27;100940.97;6225914;22;44747;-84
2023/06/16 00:10:20;;;;;;;;;15.33;15.33;;;;;24.40;40.03;100945.66;6224965;22;45307;-84
2023/06/16 00:12:45;;;;;;;;;20.33;20.33;;;;;24.42;40.31;100938.34;6197711;22;46529;-84
2023/06/16 00:15:11;;;;;;;;;19.33;18.33;;;;;24.38;40.32;100941.22;6225211;22;45466;-84
2023/06/16 00:17:44;;;;;;;;;21.00;20.33;;;;;24.36;40.33;100938.59;6199291;22;45272;-86
2023/06/16 00:20:10;;;;;;;;;22.67;22.00;;;;;24.34;40.38;100944.06;6226661;22;45403;-85
2023/06/16 00:22:39;;;;;;;;;24.67;22.67;;;;;24.34;40.77;100938.63;6226689;22;45681;-83
2023/06/16 00:25:04;;;;;;;;;23.67;23.67;;;;;24.23;40.60;100937.28;6223947;22;45324;-85
2023/06/16 00:27:30;;;;;;;;;17.33;17.33;;;;;24.24;40.65;100934.50;6224373;22;45387;-85
2023/06/16 00:29:55;;;;;;;;;21.00;20.67;;;;;24.20;40.99;100941.03;6225143;22;44843;-84
2023/06/16 00:32:21;;;;;;;;;22.33;22.33;;;;;24.12;40.65;100941.31;6248016;22;46492;-84
2023/06/16 00:34:46;;;;;;;;;24.33;22.33;;;;;24.04;40.80;100932.56;6225412;22;45573;-85
2023/06/16 00:37:12;;;;;;;;;18.33;18.33;;;;;24.05;41.00;100939.75;6247454;22;45501;-82
2023/06/16 00:39:38;;;;;;;;;18.33;18.33;;;;;23.98;41.00;100937.38;6248043;22;45528;-84
2023/06/16 00:42:04;;;;;;;;;20.33;18.00;;;;;23.98;41.54;100935.53;6196325;22;46692;-83
2023/06/16 00:44:29;;;;;;;;;22.00;20.67;;;;;23.87;41.81;100946.78;6223945;22;45517;-84
2023/06/16 00:46:55;;;;;;;;;21.00;19.67;;;;;23.86;42.00;100949.59;6199822;22;45569;-84
2023/06/16 00:49:21;;;;;;;;;21.00;21.00;;;;;23.79;42.15;100934.44;6198958;22;45309;-85
2023/06/16 00:51:48;;;;;;;;;19.67;19.00;;;;;23.82;42.37;100939.78;6224424;22;47213;-84
2023/06/16 00:54:15;;;;;;;;;22.00;19.00;;;;;23.81;42.59;100951.56;6225198;22;45045;-83
2023/06/16 00:56:43;;;;;;;;;18.67;18.00;;;;;23.76;42.16;100952.59;6223735;22;45315;-85
2023/06/16 00:59:08;;;;;;;;;22.33;20.67;;;;;23.70;42.22;100944.69;6198267;22;45335;-84
2023/06/16 01:01:35;;;;;;;;;19.33;19.00;;;;;23.68;42.58;100940.25;6199608;22;46624;-84
2023/06/16 01:04:01;;;;;;;;;17.67;17.67;;;;;23.56;43.08;100947.03;6225368;22;44693;-84
2023/06/16 01:06:41;;;;;;;;;17.33;17.33;;;;;23.67;43.18;100952.97;6225819;22;45363;-84
2023/06/16 01:09:35;;;;;;;;;20.67;18.33;;;;;23.61;43.21;100947.72;6225923;22;45536;-84
2023/06/16 01:12:23;;;;;;;;;20.33;19.33;;;;;23.50;43.36;100940.00;6225954;22;45478;-84
2023/06/16 01:15:01;;;;;;;;;21.00;20.00;;;;;23.48;43.10;100944.59;6224478;22;45837;-84
2023/06/16 01:17:30;;;;;;;;;21.33;19.67;;;;;23.39;43.63;100941.31;6227352;22;45199;-85
2023/06/16 01:20:07;;;;;;;;;17.67;16.67;;;;;23.33;43.47;100937.91;6200503;22;45287;-85
2023/06/16 01:23:14;;;;;;;;;20.00;20.00;;;;;23.32;44.05;100937.94;6225017;22;46035;-85
2023/06/16 01:25:43;;;;;;;;;20.00;19.00;;;;;23.23;44.42;100950.03;6133036;23;45354;-84
2023/06/16 01:28:10;;;;;;;;;19.00;18.67;;;;;23.19;44.57;100952.88;6132836;23;45381;-84
2023/06/16 01:30:42;;;;;;;;;19.67;19.67;;;;;23.12;44.42;100938.66;6106035;23;45395;-85
2023/06/16 01:33:11;;;;;;;;;24.67;22.67;;;;;23.14;44.91;100937.66;6106402;23;45238;-85
2023/06/16 01:35:40;;;;;;;;;22.00;21.00;;;;;23.11;44.72;100942.31;6132321;23;45474;-85
2023/06/16 01:38:07;;;;;;;;;21.33;19.33;;;;;23.02;45.02;100939.91;6132638;23;45336;-85
2023/06/16 01:40:33;;;;;;;;;19.00;19.00;;;;;22.89;44.94;100928.56;6107563;23;45392;-84
2023/06/16 01:43:00;;;;;;;;;22.00;19.00;;;;;22.84;45.47;100934.13;6131399;23;46368;-84
2023/06/16 01:45:26;;;;;;;;;20.00;17.67;;;;;22.77;45.44;100924.44;6108067;23;44816;-85
2023/06/16 01:47:53;;;;;;;;;20.33;20.33;;;;;22.85;45.08;100933.19;6146787;23;45556;-85
2023/06/16 01:50:19;;;;;;;;;18.33;18.33;;;;;22.79;45.41;100936.13;6161591;23;45415;-86
2023/06/16 01:52:45;;;;;;;;;21.00;18.00;;;;;22.71;45.65;100930.06;6162758;23;45889;-84
2023/06/16 01:55:13;;;;;;;;;18.33;18.33;;;;;22.72;45.93;100937.25;6160451;23;45437;-84
2023/06/16 01:57:38;;;;;;;;;19.00;19.00;;;;;22.63;46.38;100926.72;6159390;23;45765;-85
2023/06/16 02:00:11;;;;;;;;;18.33;18.33;;;;;22.71;46.25;100940.91;6160245;23;45499;-85
2023/06/16 02:02:41;;;;;;;;;19.00;19.00;;;;;22.66;46.59;100934.75;6189072;22;45331;-84
2023/06/16 02:05:10;;;;;;;;;17.33;16.00;;;;;22.63;46.37;100943.00;6223664;22;45426;-84
2023/06/16 02:07:43;;;;;;;;;20.00;20.00;;;;;22.64;46.65;100948.34;6222196;22;45796;-84
2023/06/16 02:10:11;;;;;;;;;17.00;17.00;;;;;22.60;46.77;100937.66;6222654;22;45381;-84
2023/06/16 02:12:40;;;;;;;;;18.33;17.67;;;;;22.52;46.78;100936.09;6223330;22;46700;-85
2023/06/16 02:15:07;;;;;;;;;21.67;19.67;;;;;22.52;46.61;100927.97;6199523;22;45508;-85
2023/06/16 02:17:32;;;;;;;;;17.00;17.00;;;;;22.55;46.42;100946.84;6224077;22;45405;-84
2023/06/16 02:19:58;;;;;;;;;18.33;18.33;;;;;22.52;46.44;100938.81;6225648;22;45344;-83
2023/06/16 02:22:24;;;;;;;;;21.33;21.00;;;;;22.48;46.76;100939.84;6224523;22;46698;-85
2023/06/16 02:24:49;;;;;;;;;19.00;17.00;;;;;22.47;46.56;100945.31;6225825;22;45362;-85
2023/06/16 02:27:15;;;;;;;;;19.33;18.33;;;;;22.41;46.81;100943.69;6225943;22;45347;-85
2023/06/16 02:29:41;;;;;;;;;17.00;17.00;;;;;22.34;46.73;100942.13;6221331;22;45391;-85
2023/06/16 02:32:06;;;;;;;;;18.33;18.33;;;;;22.31;47.11;100939.50;6196723;22;47238;-85
2023/06/16 02:34:32;;;;;;;;;17.33;17.00;;;;;22.32;46.97;100944.00;6223933;22;45312;-85
2023/06/16 02:36:58;;;;;;;;;18.00;18.00;;;;;22.30;47.23;100943.13;6225160;22;45345;-85
2023/06/16 02:39:24;;;;;;;;;17.67;16.00;;;;;22.21;46.88;100932.56;6197871;22;44922;-85
2023/06/16 02:41:50;;;;;;;;;18.33;16.33;;;;;22.27;47.07;100940.53;6224406;22;45441;-85
2023/06/16 02:45:02;;;;;;;;;19.67;19.33;;;;;22.34;47.01;100936.69;6195284;22;45308;-84
2023/06/16 02:47:27;;;;;;;;;20.00;19.67;;;;;22.20;46.88;100934.38;6224196;22;45331;-84
2023/06/16 02:49:54;;;;;;;;;17.67;17.67;;;;;22.20;47.99;100936.19;6220697;22;45802;-84
2023/06/16 02:52:20;;;;;;;;;17.33;17.33;;;;;22.11;47.60;100930.13;6222418;22;45391;-85
2023/06/16 02:54:46;;;;;;;;;18.00;18.00;;;;;22.07;47.55;100928.44;6195402;22;45406;-85
2023/06/16 02:57:11;;;;;;;;;20.33;19.33;;;;;22.09;47.69;100931.97;6222033;22;45544;-83
2023/06/16 02:59:37;;;;;;;;;21.67;19.00;;;;;22.09;47.71;100937.41;6222688;22;45491;-83
2023/06/16 03:02:03;;;;;;;;;19.33;17.67;;;;;22.04;47.92;100936.69;6220752;22;46860;-85
2023/06/16 03:04:28;;;;;;;;;18.00;18.00;;;;;21.98;47.61;100928.75;6221685;22;45466;-87
2023/06/16 03:06:58;;;;;;;;;19.00;19.00;;;;;21.98;48.25;100928.75;6224200;22;45346;-84
2023/06/16 03:09:25;;;;;;;;;17.00;17.00;;;;;22.01;47.37;100930.44;6197690;22;45315;-84
2023/06/16 03:11:51;;;;;;;;;21.00;19.67;;;;;21.96;47.89;100926.06;6197056;22;46912;-85
2023/06/16 03:14:16;;;;;;;;;17.00;17.00;;;;;21.96;47.94;100930.59;6225200;22;45666;-84
2023/06/16 03:16:42;;;;;;;;;15.67;15.67;;;;;21.96;47.75;100928.78;6224684;22;45951;-86
2023/06/16 03:19:07;;;;;;;;;17.33;17.33;;;;;21.96;47.75;100936.03;6225838;22;45285;-85
2023/06/16 03:21:33;;;;;;;;;21.33;19.67;;;;;21.88;48.33;100938.06;6225178;22;45429;-85
2023/06/16 03:23:58;;;;;;;;;20.67;19.00;;;;;21.87;48.13;100941.69;6198355;22;45450;-85
2023/06/16 03:26:25;;;;;;;;;19.00;19.00;;;;;21.90;48.32;100949.75;6223905;22;45624;-84
2023/06/16 03:28:50;;;;;;;;;20.67;19.00;;;;;21.82;48.45;100940.97;6197858;22;45451;-85
2023/06/16 03:31:15;;;;;;;;;19.00;18.33;;;;;21.81;48.35;100940.06;6196553;22;47227;-85
2023/06/16 03:33:41;;;;;;;;;17.33;17.33;;;;;21.83;48.89;100951.72;6224317;22;44804;-85
2023/06/16 03:36:06;;;;;;;;;18.67;18.00;;;;;21.78;48.56;100945.56;6199020;22;45288;-85
2023/06/16 03:38:32;;;;;;;;;22.67;20.33;;;;;21.77;49.05;100949.19;6226995;22;44691;-84
2023/06/16 03:40:57;;;;;;;;;20.00;20.00;;;;;21.71;48.88;100942.16;6226008;22;45259;-85
2023/06/16 03:43:23;;;;;;;;;19.33;18.00;;;;;21.68;48.70;100946.78;6223576;22;45325;-83
2023/06/16 03:45:48;;;;;;;;;17.67;16.67;;;;;21.68;49.12;100950.34;6197309;22;45348;-84
2023/06/16 03:48:14;;;;;;;;;17.33;17.33;;;;;21.71;49.25;100946.66;6222531;22;45427;-84
2023/06/16 03:50:39;;;;;;;;;18.67;17.67;;;;;21.61;49.10;100954.16;6224625;22;45404;-84
2023/06/16 03:53:05;;;;;;;;;19.67;19.33;;;;;21.66;49.06;100949.50;6223594;22;45221;-84
2023/06/16 03:55:30;;;;;;;;;16.00;15.00;;;;;21.66;49.32;100949.50;6226193;22;45342;-84
2023/06/16 03:57:56;;;;;;;;;16.67;16.00;;;;;21.70;49.41;100956.63;6223953;22;45340;-83
2023/06/16 04:00:22;;;;;;;;;17.67;17.67;;;;;21.66;49.52;100943.22;6197602;22;47226;-86
2023/06/16 04:02:48;;;;;;;;;20.33;16.33;;;;;21.65;49.47;100942.31;6223862;22;45314;-85
2023/06/16 04:05:13;;;;;;;;;17.33;17.00;;;;;21.68;49.45;100955.78;6223170;22;45437;-85
2023/06/16 04:07:39;;;;;;;;;19.33;18.33;;;;;21.71;49.02;100954.78;6225592;22;45459;-84
2023/06/16 04:10:05;;;;;;;;;17.00;16.67;;;;;21.69;49.78;100954.84;6198121;22;48296;-84
2023/06/16 04:12:30;;;;;;;;;19.33;18.00;;;;;21.67;49.36;100951.31;6198996;22;45240;-85
2023/06/16 04:14:58;;;;;;;;;19.33;18.33;;;;;21.74;49.61;100955.59;6198590;22;45438;-83
2023/06/16 04:17:23;;;;;;;;;19.67;19.67;;;;;21.68;49.52;100950.34;6198083;22;45293;-84
2023/06/16 04:19:49;;;;;;;;;23.33;21.00;;;;;21.73;49.69;100959.25;6223302;22;45748;-85
2023/06/16 04:22:14;;;;;;;;;18.67;18.33;;;;;21.74;49.87;100957.41;6221899;22;45333;-84
2023/06/16 04:24:40;;;;;;;;;17.00;16.67;;;;;21.80;49.76;100959.06;6224330;22;45307;-85
2023/06/16 04:27:06;;;;;;;;;20.00;18.33;;;;;21.85;49.60;100965.22;6222076;22;45296;-84
2023/06/16 04:29:32;;;;;;;;;15.00;14.67;;;;;21.87;49.44;100958.81;6222118;22;46866;-84
2023/06/16 04:31:59;;;;;;;;;10.00;10.00;;;;;21.94;49.63;100965.84;6223171;22;45526;-84
2023/06/16 04:34:25;;;;;;;;;21.00;19.00;;;;;21.99;49.26;100952.16;6223049;22;45257;-85
2023/06/16 04:36:50;;;;;;;;;17.67;17.33;;;;;22.09;49.77;100961.78;6223334;22;45308;-85
2023/06/16 04:39:16;;;;;;;;;20.33;19.67;;;;;22.16;49.16;100960.69;6196588;22;48086;-86
2023/06/16 04:41:45;;;;;;;;;19.00;16.33;;;;;22.29;49.28;100955.78;6197030;22;44760;-85
2023/06/16 04:44:11;;;;;;;;;21.00;20.67;;;;;22.32;49.48;100954.81;6197730;22;45354;-84
2023/06/16 04:46:37;;;;;;;;;18.00;18.00;;;;;22.42;49.30;100960.81;6225549;22;45441;-85
2023/06/16 04:49:16;;;;;;;;;21.00;21.00;;;;;22.55;49.29;100960.38;6247074;22;46745;-83
2023/06/16 04:51:44;;;;;;;;;21.33;19.67;;;;;22.61;49.08;100958.44;6256098;22;44924;-83
2023/06/16 04:54:09;;;;;;;;;19.00;18.00;;;;;22.61;48.79;100944.88;6227735;22;45363;-84
2023/06/16 04:56:34;;;;;;;;;21.00;19.67;;;;;22.77;48.92;100956.97;6253598;22;45509;-85
2023/06/16 04:59:00;;;;;;;;;20.67;20.67;;;;;22.85;48.47;100954.91;6257016;22;45427;-84
2023/06/16 05:01:26;;;;;;;;;19.00;18.00;;;;;22.99;48.60;100961.69;6255022;22;45338;-85
2023/06/16 05:03:53;;;;;;;;;17.00;17.00;;;;;23.09;48.41;100960.47;6228384;22;45217;-84
2023/06/16 05:06:18;;;;;;;;;21.67;21.67;;;;;23.14;47.88;100944.91;6227732;22;45451;-85
2023/06/16 05:08:44;;;;;;;;;24.00;22.33;;;;;23.17;48.13;100942.97;6254205;22;45329;-85
2023/06/16 05:11:12;;;;;;;;;22.00;20.67;;;;;23.38;47.64;100950.41;6255260;22;45356;-86
2023/06/16 05:13:38;;;;;;;;;22.67;22.00;;;;;23.32;47.74;100955.09;6254348;22;45296;-85
2023/06/16 05:16:04;;;;;;;;;19.33;18.33;;;;;23.32;47.79;100946.97;6256441;22;45312;-85
2023/06/16 05:18:29;;;;;;;;;20.33;20.00;;;;;23.38;47.33;100942.28;6229694;22;47230;-83
2023/06/16 05:20:54;;;;;;;;;20.67;20.00;;;;;23.44;47.79;100944.75;6256454;22;45377;-85
2023/06/16 05:23:20;;;;;;;;;20.33;18.00;;;;;23.54;47.75;100949.78;6255670;22;45374;-84
2023/06/16 05:25:45;;;;;;;;;19.33;19.33;;;;;23.55;47.33;100938.00;6258813;22;45286;-84
2023/06/16 05:31:35;;;;;;;;;23.33;21.67;;;;;23.87;46.88;100945.91;6258809;22;44676;-84
2023/06/16 05:34:03;;;;;;;;;18.00;18.00;;;;;24.07;46.67;100940.59;6230712;22;45396;-84
2023/06/16 05:36:30;;;;;;;;;21.67;21.00;;;;;24.07;46.10;100935.16;6255530;22;45315;-84
2023/06/16 05:38:56;;;;;;;;;22.67;20.67;;;;;24.22;46.30;100943.66;6255021;22;47355;-84
2023/06/16 05:41:26;;;;;;;;;22.00;22.00;;;;;24.16;46.31;100934.81;6257841;22;45362;-84
2023/06/16 05:43:51;;;;;;;;;21.67;20.33;;;;;24.17;46.86;100933.84;6233379;22;45439;-84
2023/06/16 05:46:17;;;;;;;;;19.33;19.33;;;;;24.22;46.18;100944.56;6233132;22;45500;-84
2023/06/16 05:48:43;;;;;;;;;21.33;20.33;;;;;24.36;46.42;100939.47;6230317;22;46582;-84
2023/06/16 05:51:10;;;;;;;;;23.00;23.00;;;;;24.55;45.89;100942.34;6259265;22;45354;-84
2023/06/16 05:53:36;;;;;;;;;20.67;19.33;;;;;24.65;45.52;100939.25;6230195;22;45334;-83
2023/06/16 05:56:01;;;;;;;;;20.00;20.00;;;;;24.78;45.86;100934.19;6256019;22;45389;-85
2023/06/16 05:58:26;;;;;;;;;21.67;20.67;;;;;24.95;45.50;100943.41;6258054;22;45108;-84
2023/06/16 06:00:52;;;;;;;;;24.67;23.67;;;;;25.12;45.08;100933.63;6256260;22;45256;-84
2023/06/16 06:03:17;;;;;;;;;22.67;20.67;;;;;25.23;44.86;100944.97;6255020;22;45310;-85
2023/06/16 06:05:43;;;;;;;;;22.33;21.00;;;;;25.31;45.06;100929.19;6228101;22;44858;-85
2023/06/16 06:08:08;;;;;;;;;23.00;22.33;;;;;25.53;44.21;100940.00;6255246;22;47414;-85
2023/06/16 06:10:34;;;;;;;;;23.33;22.33;;;;;25.65;44.32;100944.00;6256472;22;45308;-84
2023/06/16 06:13:03;;;;;;;;;21.00;21.00;;;;;25.82;43.73;100940.50;6228167;22;45778;-84
2023/06/16 06:15:30;;;;;;;;;22.00;22.00;;;;;25.91;43.66;100950.09;6228376;22;45730;-85
2023/06/16 06:17:55;;;;;;;;;19.33;19.33;;;;;25.96;43.27;100939.00;6226546;22;46427;-85
2023/06/16 06:20:21;;;;;;;;;20.33;20.33;;;;;26.08;42.96;100946.59;6255129;22;45402;-84
2023/06/16 06:23:33;;;;;;;;;18.33;18.33;;;;;26.33;43.13;100946.31;6251290;22;45756;-84
2023/06/16 06:25:59;;;;;;;;;20.33;19.00;;;;;26.33;42.55;100946.31;6252684;22;45746;-85
2023/06/16 06:28:24;;;;;;;;;20.33;19.00;;;;;26.33;42.37;100947.19;6252297;22;47136;-84
2023/06/16 06:30:55;;;;;;;;;21.00;21.00;;;;;26.46;42.39;100955.66;6252391;22;44896;-85
2023/06/16 06:33:21;;;;;;;;;23.33;22.67;;;;;26.55;42.29;100957.94;6253767;22;45332;-82
2023/06/16 06:35:46;;;;;;;;;25.00;22.00;;;;;26.59;41.94;100963.28;6251138;22;45351;-84
2023/06/16 06:38:13;;;;;;;;;25.33;22.67;;;;;26.47;41.56;100962.00;6251345;22;44944;-83
2023/06/16 06:40:38;;;;;;;;;22.00;21.00;;;;;26.53;41.79;100965.28;6250600;22;45313;-83
2023/06/16 06:43:04;;;;;;;;;22.00;21.33;;;;;26.61;41.90;100970.41;6224735;22;45466;-83
2023/06/16 06:45:30;;;;;;;;;25.00;22.00;;;;;26.66;41.34;100957.44;6251603;22;45342;-83
2023/06/16 06:47:56;;;;;;;;;21.67;20.00;;;;;26.66;41.81;100960.19;6220950;22;47115;-82
2023/06/16 06:50:21;;;;;;;;;23.00;22.67;;;;;26.79;41.39;100965.03;6198366;22;45510;-83
2023/06/16 06:52:47;;;;;;;;;22.33;21.00;;;;;26.97;41.46;100976.84;6225035;22;45292;-84
2023/06/16 06:55:12;;;;;;;;;23.67;22.33;;;;;27.04;40.93;100979.16;6226258;22;45326;-83
2023/06/16 06:57:40;;;;;;;;;23.00;21.67;;;;;27.09;40.89;100989.88;6222837;22;46966;-82
2023/06/16 07:00:10;;;;;;;;;25.33;24.33;;;;;27.09;40.37;100979.84;6223874;22;45673;-83
2023/06/16 07:02:36;;;;;;;;;23.00;20.00;;;;;27.13;40.91;100995.09;6223702;22;45342;-82
2023/06/16 07:05:02;;;;;;;;;20.33;19.67;;;;;27.22;40.63;100998.31;6226795;22;45413;-83
2023/06/16 07:07:31;;;;;;;;;19.00;19.00;;;;;27.27;40.36;100996.28;6199363;22;47094;-83
2023/06/16 07:09:59;;;;;;;;;26.33;22.33;;;;;27.26;40.16;101003.56;6200938;22;44744;-82
2023/06/16 07:12:36;;;;;;;;;;;;;;;;;;;;;
2023/06/16 07:18:23;;;;;;;;;19.67;19.67;;;;;27.55;40.20;101012.06;6230379;22;45770;-84
2023/06/16 07:23:42;;;;;;;;;20.00;19.67;;;;;27.59;39.19;100994.59;6229066;22;45403;-84
2023/06/16 07:26:07;;;;;;;;;21.67;21.00;;;;;27.51;39.47;101007.75;6228248;22;45307;-83
2023/06/16 07:28:33;;;;;;;;;21.67;20.67;;;;;27.45;39.98;101002.59;6227625;22;45518;-83
2023/06/16 07:30:59;;;;;;;;;24.00;22.00;;;;;27.45;39.42;100997.13;6197514;22;45429;-83
2023/06/16 07:33:27;;;;;;;;;20.33;20.00;;;;;27.68;39.77;101005.00;6197282;22;45405;-83
2023/06/16 07:35:53;;;;;;;;;17.67;17.67;;;;;27.77;39.50;101003.63;6225863;22;45555;-83
2023/06/16 07:38:21;;;;;;;;;23.67;22.00;;;;;27.99;39.44;101013.44;6227247;22;45659;-84
2023/06/16 07:40:47;;;;;;;;;24.33;23.00;;;;;27.94;39.26;101005.50;6226128;22;44829;-84
2023/06/16 07:43:14;;;;;;;;;20.00;20.00;;;;;28.00;38.76;101010.63;6230007;22;45521;-84
2023/06/16 07:45:40;;;;;;;;;23.33;20.00;;;;;28.06;38.57;101013.03;6198590;22;45371;-84
2023/06/16 07:48:07;;;;;;;;;20.33;19.67;;;;;28.10;38.35;101005.53;6230304;22;48205;-83
2023/06/16 07:50:40;;;;;;;;;26.00;24.00;;;;;28.12;38.30;100993.53;6252551;22;45470;-84
2023/06/16 08:05:29;;;;;;;;;22.67;21.00;;;;;28.30;37.48;100990.75;6223965;22;45125;-84
2023/06/16 08:12:32;;;;;;;;;20.67;19.00;;;;;28.67;35.60;101002.38;6203011;22;45478;-83
2023/06/16 08:19:00;;;;;;;;;19.67;19.67;;;;;28.65;35.27;101004.31;6209967;22;45370;-86
2023/06/16 08:22:07;;;;;;;;;21.67;21.00;;;;;28.46;35.81;100988.94;6162348;23;45980;-84
2023/06/16 08:25:12;;;;;;;;;;;;;;;;;;;;;
2023/06/16 08:50:23;;;;;;;;;20.33;18.33;;;;;29.39;33.74;100981.72;6165905;23;45309;-84
2023/06/16 09:00:22;;;;;;;;;;;;;;;;;;;;;
2023/06/16 09:03:14;;;;;;;;;18.33;16.33;;;;;29.16;32.77;100952.94;5917780;24;72480;-86
2023/06/16 09:06:10;;;;;;;;;;;;;;;;;;;;;
2023/06/16 09:09:10;;;;;;;;;;;;;;;;;;;;;
2023/06/16 09:11:51;;;;;;;;;;;;;;;;;;;;;
2023/06/16 09:14:29;;;;;;;;;12.67;12.67;;;;;29.36;31.43;100975.53;5958554;23;71922;-85
2023/06/16 09:17:37;;;;;;;;;11.00;10.00;;;;;29.43;30.55;100968.69;5961716;23;44913;-85
2023/06/16 09:44:58;;;;;;;;;14.00;14.00;;;;;29.25;28.83;100925.00;6020222;23;45389;-85
2023/06/16 09:58:08;;;;;;;;;;;;;;;;;;;;;
2023/06/16 10:12:03;;;;;;;;;;;;;;;;;;;;;
2023/06/16 10:24:39;;;;;;;;;13.00;13.00;;;;;29.64;28.04;100926.25;5904822;24;45437;-85
2023/06/16 10:29:53;;;;;;;;;14.33;14.33;;;;;29.84;27.77;100925.00;6179346;22;45459;-85
2023/06/16 10:33:15;;;;;;;;;;;;;;;;;;;;;
2023/06/16 10:36:53;;;;;;;;;12.33;12.33;;;;;29.98;27.60;100936.97;6132121;23;68882;-84
2023/06/16 10:39:48;;;;;;;;;12.00;12.00;;;;;29.90;27.87;100953.91;6134352;23;45378;-85
2023/06/16 10:46:04;;;;;;;;;;;;;;;;;;;;;
2023/06/16 10:52:20;;;;;;;;;12.33;12.00;;;;;29.85;28.22;100934.97;6135867;23;45357;-85
2023/06/16 10:54:51;;;;;;;;;16.67;13.67;;;;;29.68;28.28;100922.34;6135736;23;45357;-84
2023/06/16 10:57:57;;;;;;;;;15.00;15.00;;;;;29.92;27.41;100943.72;6111114;23;45470;-83
2023/06/16 11:03:21;;;;;;;;;16.00;15.00;;;;;29.82;28.04;100923.34;6198407;23;45288;-87
2023/06/16 11:06:46;;;;;;;;;;;;;;;;;;;;;
2023/06/16 11:09:40;;;;;;;;;;;;;;;;;;;;;
2023/06/16 11:12:07;;;;;;;;;7.00;5.67;;;;;30.01;27.98;100912.94;6090101;23;67575;-82
2023/06/16 11:18:28;;;;;;;;;11.33;11.33;;;;;30.23;26.79;100923.41;6102010;23;45416;-85
2023/06/16 11:21:33;;;;;;;;;14.67;14.67;;;;;30.06;27.15;100916.28;6075767;23;45473;-85
2023/06/16 11:24:11;;;;;;;;;12.67;12.67;;;;;29.92;27.65;100897.09;6076475;23;45201;-85
2023/06/16 11:26:39;;;;;;;;;15.00;15.00;;;;;29.95;27.71;100902.38;6094792;23;45537;-83
2023/06/16 11:29:07;;;;;;;;;15.00;15.00;;;;;29.89;27.33;100897.28;6082092;23;46884;-85
2023/06/16 11:31:38;;;;;;;;;14.33;14.33;;;;;29.96;27.27;100898.66;6101513;23;45836;-84
2023/06/16 11:34:11;;;;;;;;;14.33;14.33;;;;;30.19;27.27;100927.31;6101647;23;45356;-83
2023/06/16 11:36:36;;;;;;;;;14.00;14.00;;;;;30.07;27.01;100896.09;6076528;23;44949;-84
2023/06/16 11:42:25;;;;;;;;;15.67;15.67;;;;;30.45;27.18;100922.91;6102892;23;45415;-84
2023/06/16 11:44:54;;;;;;;;;17.00;17.00;;;;;30.43;27.18;100907.53;6127785;23;45411;-85
2023/06/16 11:47:22;;;;;;;;;16.00;16.00;;;;;30.48;27.24;100909.00;6141154;23;45303;-84
2023/06/16 11:49:48;;;;;;;;;15.67;15.67;;;;;30.43;26.88;100913.88;6168885;23;45443;-85
2023/06/16 11:52:16;;;;;;;;;15.67;15.33;;;;;30.44;26.62;100915.66;6137202;23;45721;-84
2023/06/16 11:54:45;;;;;;;;;15.33;15.33;;;;;30.37;26.41;100906.06;6166395;23;45439;-86
2023/06/16 11:57:15;;;;;;;;;13.67;13.67;;;;;30.28;26.49;100898.44;6191629;22;45240;-82
2023/06/16 11:59:45;;;;;;;;;15.67;15.33;;;;;30.39;27.10;100898.63;6166981;23;45418;-84
2023/06/16 12:16:49;;;;;;;;;;;;;;;;;;;;;
2023/06/16 12:46:12;;;;;;;;;18.00;18.00;;;;;30.96;24.80;100841.72;6253585;22;45409;-85
2023/06/16 12:49:40;;;;;;;;;16.00;14.67;;;;;30.90;25.35;100835.69;6221425;22;44833;-85
2023/06/16 12:59:53;;;;;;;;;15.00;15.00;;;;;31.02;25.25;100836.66;5929126;23;45312;-87
2023/06/16 13:06:22;;;;;;;;;14.67;14.67;;;;;31.11;25.41;100826.94;5992533;23;45467;-86
2023/06/16 13:19:08;;;;;;;;;16.00;16.00;;;;;31.49;24.91;100828.81;5851542;24;45488;-85
2023/06/16 13:21:44;;;;;;;;;14.67;14.67;;;;;31.60;25.19;100820.66;5930114;23;45362;-87
2023/06/16 13:27:47;;;;;;;;;16.33;16.33;;;;;31.57;25.22;100807.16;5969766;23;45679;-86
2023/06/16 13:30:35;;;;;;;;;17.33;16.33;;;;;31.91;24.90;100834.91;5984881;23;45600;-88
2023/06/16 13:40:50;;;;;;;;;18.00;18.00;;;;;32.25;24.49;100814.00;6104751;23;45322;-87
2023/06/16 14:10:41;;;;;;;;;18.67;18.00;;;;;41.06;17.88;100806.56;6159733;23;44907;-87
2023/06/16 14:24:17;;;;;;;;;;;;;;;;;;;;;
2023/06/16 16:00:26;;;;;;;;;15.33;15.00;;;;;50.29;11.51;100710.88;6225313;22;45321;-87
2023/06/16 16:02:51;;;;;;;;;14.67;14.67;;;;;50.35;11.74;100727.72;6276110;22;45358;-87
2023/06/16 16:05:23;;;;;;;;;14.67;14.67;;;;;50.66;10.50;100730.53;6251204;22;45384;-85
2023/06/16 16:08:35;;;;;;;;;;;;;;;;;;;;;
2023/06/16 16:11:04;;;;;;;;;13.67;13.67;;;;;48.76;11.25;100716.41;6251542;22;66452;-87
2023/06/16 16:22:51;;;;;;;;;13.33;13.33;;;;;46.86;12.48;100712.94;6222110;22;45552;-87
2023/06/16 16:25:35;;;;;;;;;;;;;;;;;;;;;
2023/06/16 16:28:07;;;;;;;;;16.33;16.33;;;;;42.64;14.28;100691.09;6235886;22;71664;-86
2023/06/16 16:30:59;;;;;;;;;16.00;16.00;;;;;41.66;15.04;100682.38;6255800;22;45340;-86
2023/06/16 16:33:54;;;;;;;;;17.00;14.00;;;;;41.96;14.81;100689.00;6255098;22;45419;-87
2023/06/16 16:39:49;;;;;;;;;16.33;15.00;;;;;43.97;14.59;100669.72;6255167;22;45271;-86
2023/06/16 16:42:17;;;;;;;;;16.33;15.00;;;;;44.82;13.54;100674.38;6254674;22;45279;-87
2023/06/16 16:44:45;;;;;;;;;14.67;14.67;;;;;45.26;13.14;100684.44;6254959;22;45290;-87
2023/06/16 16:47:18;;;;;;;;;14.00;14.00;;;;;45.76;13.42;100689.84;6226425;22;47229;-86
2023/06/16 16:49:47;;;;;;;;;17.33;16.33;;;;;45.50;13.12;100670.94;6252620;22;45649;-87
2023/06/16 16:52:12;;;;;;;;;16.33;16.33;;;;;45.41;13.34;100670.25;6251696;22;44741;-87
2023/06/16 16:54:38;;;;;;;;;15.00;15.00;;;;;44.91;12.58;100669.53;6225326;22;45375;-87
2023/06/16 16:57:07;;;;;;;;;16.33;16.33;;;;;44.41;13.48;100674.28;6251656;22;47070;-86
2023/06/16 17:00:37;;;;;;;;;15.33;15.33;;;;;42.39;14.49;100677.34;6254174;22;45405;-86
2023/06/16 17:09:40;;;;;;;;;12.00;12.00;;;;;40.46;15.89;100698.16;6130534;23;45411;-87
2023/06/16 17:12:26;;;;;;;;;14.33;14.33;;;;;39.95;16.53;100693.56;6130661;23;45912;-87
2023/06/16 17:14:58;;;;;;;;;14.33;13.00;;;;;38.94;17.14;100693.44;6129301;23;45445;-85
2023/06/16 17:17:23;;;;;;;;;18.00;15.00;;;;;38.06;17.55;100687.84;6105336;23;45359;-86
2023/06/16 17:19:55;;;;;;;;;15.00;15.00;;;;;38.36;17.81;100706.91;6105225;23;45454;-86
2023/06/16 17:22:30;;;;;;;;;;;;;;;;;;;;;
2023/06/16 17:25:02;;;;;;;;;17.00;16.00;;;;;36.73;18.36;100672.47;6153068;23;68241;-86
2023/06/16 17:27:39;;;;;;;;;16.00;14.67;;;;;36.13;18.92;100680.91;6189310;22;45464;-86
2023/06/16 17:30:05;;;;;;;;;16.33;16.33;;;;;35.40;19.48;100690.38;6221130;22;46728;-87
2023/06/16 17:32:32;;;;;;;;;13.00;13.00;;;;;34.96;20.28;100706.31;6220307;22;45692;-86
2023/06/16 17:35:01;;;;;;;;;15.67;15.67;;;;;34.22;20.56;100682.41;6222201;22;45736;-85
2023/06/16 17:37:27;;;;;;;;;13.67;13.00;;;;;33.82;20.96;100702.34;6196095;22;45477;-86
2023/06/16 17:40:04;;;;;;;;;16.00;14.67;;;;;33.61;21.57;100705.03;6221848;22;45442;-86
2023/06/16 17:42:45;;;;;;;;;15.00;15.00;;;;;33.24;21.53;100683.22;6197548;22;45259;-85
2023/06/16 17:48:32;;;;;;;;;19.00;17.00;;;;;32.80;22.03;100686.81;6255196;22;44773;-87
2023/06/16 17:51:00;;;;;;;;;15.67;14.67;;;;;32.71;22.30;100712.38;6226379;22;46782;-86
2023/06/16 17:53:28;;;;;;;;;16.33;16.33;;;;;32.63;22.31;100716.59;6251195;22;45691;-86
2023/06/16 17:56:03;;;;;;;;;14.67;13.67;;;;;32.49;23.30;100712.13;6225948;22;45284;-86